sensor_id;sensor_type;location;lat;lon;timestamp;P1;durP1;ratioP1;P2;durP2;ratioP2
55037;SDS011;40937;53.594;10.034;2023-11-18T00:00:57;8.43;;;7.72;;
55037;SDS011;40937;53.594;10.034;2023-11-18T00:03:25;8.20;;;7.55;;
55037;SDS011;40937;53.594;10.034;2023-11-18T00:05:52;7.65;;;6.95;;
55037;SDS011;40937;53.594;10.034;2023-11-18T00:08:19;6.68;;;6.28;;
55037;SDS011;40937;53.594;10.034;2023-11-18T00:10:47;8.48;;;7.75;;
55037;SDS011;40937;53.594;10.034;2023-11-18T00:13:14;7.13;;;6.63;;
55037;SDS011;40937;53.594;10.034;2023-11-18T00:15:42;8.77;;;8.10;;
55037;SDS011;40937;53.594;10.034;2023-11-18T00:18:11;7.65;;;7.15;;
55037;SDS011;40937;53.594;10.034;2023-11-18T00:20:39;7.72;;;7.13;;
55037;SDS011;40937;53.594;10.034;2023-11-18T00:23:06;8.20;;;7.50;;
55037;SDS011;40937;53.594;10.034;2023-11-18T00:25:33;8.68;;;7.80;;
55037;SDS011;40937;53.594;10.034;2023-11-18T00:28:02;8.23;;;7.60;;
55037;SDS011;40937;53.594;10.034;2023-11-18T00:30:29;8.73;;;8.02;;
55037;SDS011;40937;53.594;10.034;2023-11-18T00:32:57;8.30;;;7.65;;
55037;SDS011;40937;53.594;10.034;2023-11-18T00:35:25;8.25;;;7.63;;
55037;SDS011;40937;53.594;10.034;2023-11-18T00:37:52;8.07;;;7.43;;
55037;SDS011;40937;53.594;10.034;2023-11-18T00:40:19;8.38;;;7.78;;
55037;SDS011;40937;53.594;10.034;2023-11-18T00:42:46;9.02;;;8.20;;
55037;SDS011;40937;53.594;10.034;2023-11-18T00:45:13;8.90;;;8.20;;
55037;SDS011;40937;53.594;10.034;2023-11-18T00:47:41;8.90;;;8.10;;
55037;SDS011;40937;53.594;10.034;2023-11-18T00:50:09;8.15;;;7.47;;
55037;SDS011;40937;53.594;10.034;2023-11-18T00:52:36;7.82;;;7.22;;
55037;SDS011;40937;53.594;10.034;2023-11-18T00:55:07;8.15;;;7.45;;
55037;SDS011;40937;53.594;10.034;2023-11-18T00:57:36;8.63;;;7.80;;
55037;SDS011;40937;53.594;10.034;2023-11-18T01:00:05;9.25;;;8.48;;
55037;SDS011;40937;53.594;10.034;2023-11-18T01:02:33;8.68;;;8.07;;
55037;SDS011;40937;53.594;10.034;2023-11-18T01:05:00;8.75;;;8.00;;
55037;SDS011;40937;53.594;10.034;2023-11-18T01:07:29;8.82;;;6.95;;
55037;SDS011;40937;53.594;10.034;2023-11-18T01:09:56;8.55;;;7.75;;
55037;SDS011;40937;53.594;10.034;2023-11-18T01:12:23;8.98;;;8.18;;
55037;SDS011;40937;53.594;10.034;2023-11-18T01:14:50;8.82;;;7.90;;
55037;SDS011;40937;53.594;10.034;2023-11-18T01:17:18;8.13;;;7.53;;
55037;SDS011;40937;53.594;10.034;2023-11-18T01:19:47;8.57;;;7.40;;
55037;SDS011;40937;53.594;10.034;2023-11-18T01:22:15;8.05;;;6.78;;
55037;SDS011;40937;53.594;10.034;2023-11-18T01:24:45;11.15;;;7.90;;
55037;SDS011;40937;53.594;10.034;2023-11-18T01:27:12;7.45;;;6.95;;
55037;SDS011;40937;53.594;10.034;2023-11-18T01:29:39;7.68;;;7.07;;
55037;SDS011;40937;53.594;10.034;2023-11-18T01:32:07;8.15;;;7.55;;
55037;SDS011;40937;53.594;10.034;2023-11-18T01:34:35;7.85;;;7.25;;
55037;SDS011;40937;53.594;10.034;2023-11-18T01:37:04;8.98;;;7.88;;
55037;SDS011;40937;53.594;10.034;2023-11-18T01:39:33;7.72;;;7.22;;
55037;SDS011;40937;53.594;10.034;2023-11-18T01:42:03;8.02;;;7.43;;
55037;SDS011;40937;53.594;10.034;2023-11-18T01:44:30;8.25;;;7.53;;
55037;SDS011;40937;53.594;10.034;2023-11-18T01:46:59;8.45;;;7.75;;
55037;SDS011;40937;53.594;10.034;2023-11-18T01:49:31;9.93;;;7.60;;
55037;SDS011;40937;53.594;10.034;2023-11-18T01:52:03;8.32;;;7.63;;
55037;SDS011;40937;53.594;10.034;2023-11-18T01:54:33;7.07;;;6.57;;
55037;SDS011;40937;53.594;10.034;2023-11-18T01:57:02;9.15;;;8.35;;
55037;SDS011;40937;53.594;10.034;2023-11-18T01:59:31;8.35;;;7.70;;
55037;SDS011;40937;53.594;10.034;2023-11-18T02:02:00;8.73;;;8.02;;
55037;SDS011;40937;53.594;10.034;2023-11-18T02:04:30;8.35;;;7.68;;
55037;SDS011;40937;53.594;10.034;2023-11-18T02:06:57;8.95;;;8.07;;
55037;SDS011;40937;53.594;10.034;2023-11-18T02:09:29;10.85;;;7.95;;
55037;SDS011;40937;53.594;10.034;2023-11-18T02:11:59;8.05;;;7.35;;
55037;SDS011;40937;53.594;10.034;2023-11-18T02:14:32;8.95;;;8.20;;
55037;SDS011;40937;53.594;10.034;2023-11-18T02:17:03;8.68;;;7.95;;
55037;SDS011;40937;53.594;10.034;2023-11-18T02:19:32;9.85;;;8.95;;
55037;SDS011;40937;53.594;10.034;2023-11-18T02:22:00;9.10;;;8.18;;
55037;SDS011;40937;53.594;10.034;2023-11-18T02:24:29;9.73;;;8.93;;
55037;SDS011;40937;53.594;10.034;2023-11-18T02:27:00;8.43;;;7.88;;
55037;SDS011;40937;53.594;10.034;2023-11-18T02:29:29;8.45;;;7.82;;
55037;SDS011;40937;53.594;10.034;2023-11-18T02:32:03;9.00;;;8.20;;
55037;SDS011;40937;53.594;10.034;2023-11-18T02:34:40;10.27;;;8.55;;
55037;SDS011;40937;53.594;10.034;2023-11-18T02:37:17;9.70;;;8.55;;
55037;SDS011;40937;53.594;10.034;2023-11-18T02:39:45;8.95;;;8.25;;
55037;SDS011;40937;53.594;10.034;2023-11-18T02:42:18;9.55;;;8.73;;
55037;SDS011;40937;53.594;10.034;2023-11-18T02:44:47;9.52;;;8.55;;
55037;SDS011;40937;53.594;10.034;2023-11-18T02:47:17;9.15;;;8.35;;
55037;SDS011;40937;53.594;10.034;2023-11-18T02:49:44;9.45;;;8.65;;
55037;SDS011;40937;53.594;10.034;2023-11-18T02:52:14;9.27;;;8.38;;
55037;SDS011;40937;53.594;10.034;2023-11-18T02:54:42;8.82;;;8.02;;
55037;SDS011;40937;53.594;10.034;2023-11-18T02:57:09;8.80;;;8.10;;
55037;SDS011;40937;53.594;10.034;2023-11-18T02:59:40;9.70;;;8.57;;
55037;SDS011;40937;53.594;10.034;2023-11-18T03:02:08;9.30;;;8.50;;
55037;SDS011;40937;53.594;10.034;2023-11-18T03:04:35;9.13;;;8.38;;
55037;SDS011;40937;53.594;10.034;2023-11-18T03:07:02;8.35;;;7.60;;
55037;SDS011;40937;53.594;10.034;2023-11-18T03:09:29;8.93;;;8.23;;
55037;SDS011;40937;53.594;10.034;2023-11-18T03:12:00;9.10;;;8.38;;
55037;SDS011;40937;53.594;10.034;2023-11-18T03:14:27;8.80;;;7.97;;
55037;SDS011;40937;53.594;10.034;2023-11-18T03:16:56;9.55;;;8.55;;
55037;SDS011;40937;53.594;10.034;2023-11-18T03:19:23;8.73;;;7.93;;
55037;SDS011;40937;53.594;10.034;2023-11-18T03:21:51;9.25;;;8.38;;
55037;SDS011;40937;53.594;10.034;2023-11-18T03:24:18;9.35;;;8.60;;
55037;SDS011;40937;53.594;10.034;2023-11-18T03:26:46;8.63;;;7.88;;
55037;SDS011;40937;53.594;10.034;2023-11-18T03:29:14;9.98;;;8.95;;
55037;SDS011;40937;53.594;10.034;2023-11-18T03:31:42;8.73;;;8.02;;
55037;SDS011;40937;53.594;10.034;2023-11-18T03:34:11;8.77;;;8.00;;
55037;SDS011;40937;53.594;10.034;2023-11-18T03:36:38;8.43;;;7.70;;
55037;SDS011;40937;53.594;10.034;2023-11-18T03:39:06;7.85;;;7.25;;
55037;SDS011;40937;53.594;10.034;2023-11-18T03:41:33;7.85;;;7.15;;
55037;SDS011;40937;53.594;10.034;2023-11-18T03:44:00;7.72;;;7.13;;
55037;SDS011;40937;53.594;10.034;2023-11-18T03:46:27;7.88;;;7.20;;
55037;SDS011;40937;53.594;10.034;2023-11-18T03:48:59;8.37;;;7.67;;
55037;SDS011;40937;53.594;10.034;2023-11-18T03:51:28;9.32;;;8.40;;
55037;SDS011;40937;53.594;10.034;2023-11-18T03:53:55;8.25;;;7.57;;
55037;SDS011;40937;53.594;10.034;2023-11-18T03:56:22;8.40;;;7.15;;
55037;SDS011;40937;53.594;10.034;2023-11-18T03:58:53;8.35;;;7.20;;
55037;SDS011;40937;53.594;10.034;2023-11-18T04:01:20;7.80;;;7.20;;
55037;SDS011;40937;53.594;10.034;2023-11-18T04:03:47;7.97;;;7.30;;
55037;SDS011;40937;53.594;10.034;2023-11-18T04:06:15;8.02;;;7.20;;
55037;SDS011;40937;53.594;10.034;2023-11-18T04:08:45;7.78;;;7.18;;
55037;SDS011;40937;53.594;10.034;2023-11-18T04:11:12;7.32;;;6.70;;
55037;SDS011;40937;53.594;10.034;2023-11-18T04:13:40;7.95;;;7.35;;
55037;SDS011;40937;53.594;10.034;2023-11-18T04:16:09;7.43;;;6.90;;
55037;SDS011;40937;53.594;10.034;2023-11-18T04:18:38;8.45;;;7.65;;
55037;SDS011;40937;53.594;10.034;2023-11-18T04:21:06;9.35;;;8.55;;
55037;SDS011;40937;53.594;10.034;2023-11-18T04:23:34;7.60;;;6.90;;
55037;SDS011;40937;53.594;10.034;2023-11-18T04:26:03;7.97;;;7.38;;
55037;SDS011;40937;53.594;10.034;2023-11-18T04:28:31;8.52;;;7.68;;
55037;SDS011;40937;53.594;10.034;2023-11-18T04:30:58;9.00;;;8.20;;
55037;SDS011;40937;53.594;10.034;2023-11-18T04:33:26;8.40;;;7.70;;
55037;SDS011;40937;53.594;10.034;2023-11-18T04:35:55;8.30;;;7.65;;
55037;SDS011;40937;53.594;10.034;2023-11-18T04:38:23;8.98;;;8.23;;
55037;SDS011;40937;53.594;10.034;2023-11-18T04:40:51;8.60;;;7.90;;
55037;SDS011;40937;53.594;10.034;2023-11-18T04:43:21;8.27;;;7.57;;
55037;SDS011;40937;53.594;10.034;2023-11-18T04:45:49;8.65;;;7.95;;
55037;SDS011;40937;53.594;10.034;2023-11-18T04:48:16;8.50;;;7.90;;
55037;SDS011;40937;53.594;10.034;2023-11-18T04:50:45;8.13;;;7.35;;
55037;SDS011;40937;53.594;10.034;2023-11-18T04:53:12;8.55;;;7.85;;
55037;SDS011;40937;53.594;10.034;2023-11-18T04:55:39;9.20;;;8.50;;
55037;SDS011;40937;53.594;10.034;2023-11-18T04:58:06;8.32;;;7.72;;
55037;SDS011;40937;53.594;10.034;2023-11-18T05:00:36;8.80;;;8.10;;
55037;SDS011;40937;53.594;10.034;2023-11-18T05:03:04;8.98;;;8.20;;
55037;SDS011;40937;53.594;10.034;2023-11-18T05:05:35;9.93;;;8.23;;
55037;SDS011;40937;53.594;10.034;2023-11-18T05:08:04;8.13;;;7.53;;
55037;SDS011;40937;53.594;10.034;2023-11-18T05:10:32;9.60;;;8.70;;
55037;SDS011;40937;53.594;10.034;2023-11-18T05:12:59;8.50;;;7.88;;
55037;SDS011;40937;53.594;10.034;2023-11-18T05:15:26;9.10;;;8.40;;
55037;SDS011;40937;53.594;10.034;2023-11-18T05:17:57;9.52;;;8.65;;
55037;SDS011;40937;53.594;10.034;2023-11-18T05:20:24;8.68;;;7.97;;
55037;SDS011;40937;53.594;10.034;2023-11-18T05:22:51;8.68;;;7.97;;
55037;SDS011;40937;53.594;10.034;2023-11-18T05:25:18;10.07;;;9.18;;
55037;SDS011;40937;53.594;10.034;2023-11-18T05:27:46;8.82;;;8.23;;
55037;SDS011;40937;53.594;10.034;2023-11-18T05:30:13;8.90;;;8.23;;
55037;SDS011;40937;53.594;10.034;2023-11-18T05:32:41;10.10;;;9.10;;
55037;SDS011;40937;53.594;10.034;2023-11-18T05:35:09;9.65;;;8.85;;
55037;SDS011;40937;53.594;10.034;2023-11-18T05:37:37;9.18;;;8.27;;
55037;SDS011;40937;53.594;10.034;2023-11-18T05:40:07;9.00;;;8.30;;
55037;SDS011;40937;53.594;10.034;2023-11-18T05:42:35;9.38;;;8.60;;
55037;SDS011;40937;53.594;10.034;2023-11-18T05:45:04;9.57;;;8.82;;
55037;SDS011;40937;53.594;10.034;2023-11-18T05:47:33;9.13;;;8.32;;
55037;SDS011;40937;53.594;10.034;2023-11-18T05:50:01;9.23;;;8.50;;
55037;SDS011;40937;53.594;10.034;2023-11-18T05:52:32;9.15;;;8.43;;
55037;SDS011;40937;53.594;10.034;2023-11-18T05:55:00;9.25;;;8.45;;
55037;SDS011;40937;53.594;10.034;2023-11-18T05:57:27;10.00;;;9.10;;
55037;SDS011;40937;53.594;10.034;2023-11-18T05:59:54;9.95;;;9.05;;
55037;SDS011;40937;53.594;10.034;2023-11-18T06:02:21;9.45;;;8.63;;
55037;SDS011;40937;53.594;10.034;2023-11-18T06:04:49;9.73;;;8.95;;
55037;SDS011;40937;53.594;10.034;2023-11-18T06:07:16;9.63;;;8.93;;
55037;SDS011;40937;53.594;10.034;2023-11-18T06:09:46;10.05;;;9.02;;
55037;SDS011;40937;53.594;10.034;2023-11-18T06:12:13;11.05;;;9.70;;
55037;SDS011;40937;53.594;10.034;2023-11-18T06:14:43;9.60;;;8.85;;
55037;SDS011;40937;53.594;10.034;2023-11-18T06:17:10;10.80;;;9.68;;
55037;SDS011;40937;53.594;10.034;2023-11-18T06:19:38;10.23;;;9.27;;
55037;SDS011;40937;53.594;10.034;2023-11-18T06:22:06;13.50;;;9.68;;
55037;SDS011;40937;53.594;10.034;2023-11-18T06:24:33;10.93;;;10.02;;
55037;SDS011;40937;53.594;10.034;2023-11-18T06:27:02;10.60;;;9.70;;
55037;SDS011;40937;53.594;10.034;2023-11-18T06:29:29;10.50;;;9.52;;
55037;SDS011;40937;53.594;10.034;2023-11-18T06:31:56;10.88;;;9.98;;
55037;SDS011;40937;53.594;10.034;2023-11-18T06:34:24;10.65;;;9.65;;
55037;SDS011;40937;53.594;10.034;2023-11-18T06:36:52;11.43;;;10.32;;
55037;SDS011;40937;53.594;10.034;2023-11-18T06:39:19;10.55;;;9.75;;
55037;SDS011;40937;53.594;10.034;2023-11-18T06:41:54;11.25;;;10.35;;
55037;SDS011;40937;53.594;10.034;2023-11-18T06:44:24;10.43;;;9.52;;
55037;SDS011;40937;53.594;10.034;2023-11-18T06:46:51;11.48;;;10.57;;
55037;SDS011;40937;53.594;10.034;2023-11-18T06:49:18;11.07;;;9.73;;
55037;SDS011;40937;53.594;10.034;2023-11-18T06:51:45;11.35;;;10.25;;
55037;SDS011;40937;53.594;10.034;2023-11-18T06:54:13;11.30;;;10.18;;
55037;SDS011;40937;53.594;10.034;2023-11-18T06:56:40;11.80;;;10.75;;
55037;SDS011;40937;53.594;10.034;2023-11-18T06:59:09;12.18;;;11.18;;
55037;SDS011;40937;53.594;10.034;2023-11-18T07:01:39;11.68;;;10.45;;
55037;SDS011;40937;53.594;10.034;2023-11-18T07:04:08;11.98;;;10.98;;
55037;SDS011;40937;53.594;10.034;2023-11-18T07:06:35;11.25;;;10.32;;
55037;SDS011;40937;53.594;10.034;2023-11-18T07:09:04;11.85;;;10.85;;
55037;SDS011;40937;53.594;10.034;2023-11-18T07:11:38;12.85;;;11.65;;
55037;SDS011;40937;53.594;10.034;2023-11-18T07:14:06;12.90;;;11.80;;
55037;SDS011;40937;53.594;10.034;2023-11-18T07:16:34;11.98;;;10.98;;
55037;SDS011;40937;53.594;10.034;2023-11-18T07:19:03;13.00;;;11.60;;
55037;SDS011;40937;53.594;10.034;2023-11-18T07:21:30;12.02;;;11.02;;
55037;SDS011;40937;53.594;10.034;2023-11-18T07:23:58;12.07;;;10.93;;
55037;SDS011;40937;53.594;10.034;2023-11-18T07:26:25;12.85;;;11.65;;
55037;SDS011;40937;53.594;10.034;2023-11-18T07:28:53;11.80;;;10.52;;
55037;SDS011;40937;53.594;10.034;2023-11-18T07:31:21;14.80;;;11.75;;
55037;SDS011;40937;53.594;10.034;2023-11-18T07:33:48;12.35;;;11.20;;
55037;SDS011;40937;53.594;10.034;2023-11-18T07:36:17;13.20;;;11.90;;
55037;SDS011;40937;53.594;10.034;2023-11-18T07:38:45;14.23;;;12.75;;
55037;SDS011;40937;53.594;10.034;2023-11-18T07:41:13;14.50;;;13.00;;
55037;SDS011;40937;53.594;10.034;2023-11-18T07:43:49;13.68;;;12.20;;
55037;SDS011;40937;53.594;10.034;2023-11-18T07:46:17;12.68;;;11.57;;
55037;SDS011;40937;53.594;10.034;2023-11-18T07:48:44;15.82;;;11.05;;
55037;SDS011;40937;53.594;10.034;2023-11-18T07:51:11;13.75;;;10.68;;
55037;SDS011;40937;53.594;10.034;2023-11-18T07:53:41;13.38;;;11.75;;
55037;SDS011;40937;53.594;10.034;2023-11-18T07:56:08;12.65;;;11.40;;
55037;SDS011;40937;53.594;10.034;2023-11-18T07:58:36;12.35;;;11.25;;
55037;SDS011;40937;53.594;10.034;2023-11-18T08:01:04;12.95;;;11.27;;
55037;SDS011;40937;53.594;10.034;2023-11-18T08:03:33;13.10;;;11.70;;
55037;SDS011;40937;53.594;10.034;2023-11-18T08:06:00;13.05;;;11.85;;
55037;SDS011;40937;53.594;10.034;2023-11-18T08:08:28;12.25;;;10.80;;
55037;SDS011;40937;53.594;10.034;2023-11-18T08:10:57;11.90;;;10.68;;
55037;SDS011;40937;53.594;10.034;2023-11-18T08:13:26;12.80;;;11.68;;
55037;SDS011;40937;53.594;10.034;2023-11-18T08:15:53;12.80;;;11.52;;
55037;SDS011;40937;53.594;10.034;2023-11-18T08:18:21;11.88;;;10.68;;
55037;SDS011;40937;53.594;10.034;2023-11-18T08:20:49;13.52;;;10.70;;
55037;SDS011;40937;53.594;10.034;2023-11-18T08:23:17;11.18;;;10.30;;
55037;SDS011;40937;53.594;10.034;2023-11-18T08:25:44;15.38;;;10.25;;
55037;SDS011;40937;53.594;10.034;2023-11-18T08:28:13;11.60;;;9.40;;
55037;SDS011;40937;53.594;10.034;2023-11-18T08:30:41;12.13;;;10.68;;
55037;SDS011;40937;53.594;10.034;2023-11-18T08:33:08;11.10;;;10.13;;
55037;SDS011;40937;53.594;10.034;2023-11-18T08:35:35;10.88;;;9.98;;
55037;SDS011;40937;53.594;10.034;2023-11-18T08:38:02;10.02;;;9.20;;
55037;SDS011;40937;53.594;10.034;2023-11-18T08:40:30;10.93;;;9.90;;
55037;SDS011;40937;53.594;10.034;2023-11-18T08:42:57;9.90;;;8.90;;
55037;SDS011;40937;53.594;10.034;2023-11-18T08:45:26;9.40;;;8.48;;
55037;SDS011;40937;53.594;10.034;2023-11-18T08:47:55;10.07;;;9.10;;
55037;SDS011;40937;53.594;10.034;2023-11-18T08:50:22;12.20;;;9.23;;
55037;SDS011;40937;53.594;10.034;2023-11-18T08:52:51;9.90;;;9.00;;
55037;SDS011;40937;53.594;10.034;2023-11-18T08:55:23;11.48;;;9.50;;
55037;SDS011;40937;53.594;10.034;2023-11-18T08:58:04;9.32;;;8.45;;
55037;SDS011;40937;53.594;10.034;2023-11-18T09:00:42;9.52;;;8.73;;
55037;SDS011;40937;53.594;10.034;2023-11-18T09:03:13;12.00;;;9.02;;
55037;SDS011;40937;53.594;10.034;2023-11-18T09:05:50;8.55;;;7.78;;
55037;SDS011;40937;53.594;10.034;2023-11-18T09:10:50;7.68;;;7.05;;
55037;SDS011;40937;53.594;10.034;2023-11-18T09:13:20;8.43;;;7.22;;
55037;SDS011;40937;53.594;10.034;2023-11-18T09:15:49;9.10;;;8.00;;
55037;SDS011;40937;53.594;10.034;2023-11-18T09:18:17;9.73;;;8.82;;
55037;SDS011;40937;53.594;10.034;2023-11-18T09:20:45;8.05;;;7.30;;
55037;SDS011;40937;53.594;10.034;2023-11-18T09:23:13;8.38;;;7.47;;
55037;SDS011;40937;53.594;10.034;2023-11-18T09:25:41;12.52;;;8.00;;
55037;SDS011;40937;53.594;10.034;2023-11-18T09:28:12;11.48;;;8.75;;
55037;SDS011;40937;53.594;10.034;2023-11-18T09:30:41;8.50;;;7.68;;
55037;SDS011;40937;53.594;10.034;2023-11-18T09:33:17;8.15;;;7.30;;
55037;SDS011;40937;53.594;10.034;2023-11-18T09:35:53;9.27;;;7.43;;
55037;SDS011;40937;53.594;10.034;2023-11-18T09:40:53;6.90;;;6.38;;
55037;SDS011;40937;53.594;10.034;2023-11-18T09:43:20;7.57;;;6.88;;
55037;SDS011;40937;53.594;10.034;2023-11-18T09:45:49;8.15;;;7.35;;
55037;SDS011;40937;53.594;10.034;2023-11-18T09:48:23;8.43;;;6.90;;
55037;SDS011;40937;53.594;10.034;2023-11-18T09:50:52;7.35;;;6.35;;
55037;SDS011;40937;53.594;10.034;2023-11-18T09:53:20;6.25;;;5.75;;
55037;SDS011;40937;53.594;10.034;2023-11-18T09:55:55;5.63;;;5.10;;
55037;SDS011;40937;53.594;10.034;2023-11-18T09:58:30;5.07;;;4.68;;
55037;SDS011;40937;53.594;10.034;2023-11-18T10:01:07;5.40;;;4.90;;
55037;SDS011;40937;53.594;10.034;2023-11-18T10:03:41;5.80;;;5.30;;
55037;SDS011;40937;53.594;10.034;2023-11-18T10:06:11;6.82;;;5.28;;
55037;SDS011;40937;53.594;10.034;2023-11-18T10:08:41;5.82;;;4.70;;
55037;SDS011;40937;53.594;10.034;2023-11-18T10:11:11;7.05;;;4.57;;
55037;SDS011;40937;53.594;10.034;2023-11-18T10:13:39;5.05;;;4.75;;
55037;SDS011;40937;53.594;10.034;2023-11-18T10:16:10;5.65;;;5.15;;
55037;SDS011;40937;53.594;10.034;2023-11-18T10:18:38;5.22;;;4.82;;
55037;SDS011;40937;53.594;10.034;2023-11-18T10:21:14;4.35;;;3.95;;
55037;SDS011;40937;53.594;10.034;2023-11-18T10:23:58;4.03;;;3.72;;
55037;SDS011;40937;53.594;10.034;2023-11-18T10:26:27;4.63;;;4.22;;
55037;SDS011;40937;53.594;10.034;2023-11-18T10:28:54;5.00;;;4.60;;
55037;SDS011;40937;53.594;10.034;2023-11-18T10:31:21;4.93;;;4.38;;
55037;SDS011;40937;53.594;10.034;2023-11-18T10:33:51;3.88;;;3.58;;
55037;SDS011;40937;53.594;10.034;2023-11-18T10:36:18;4.13;;;3.83;;
55037;SDS011;40937;53.594;10.034;2023-11-18T10:38:49;4.18;;;3.88;;
55037;SDS011;40937;53.594;10.034;2023-11-18T10:41:18;5.38;;;4.03;;
55037;SDS011;40937;53.594;10.034;2023-11-18T10:43:45;5.25;;;3.97;;
55037;SDS011;40937;53.594;10.034;2023-11-18T10:46:14;4.45;;;4.15;;
55037;SDS011;40937;53.594;10.034;2023-11-18T10:48:42;3.28;;;3.08;;
55037;SDS011;40937;53.594;10.034;2023-11-18T10:51:14;3.92;;;3.63;;
55037;SDS011;40937;53.594;10.034;2023-11-18T10:53:43;3.47;;;3.15;;
55037;SDS011;40937;53.594;10.034;2023-11-18T10:56:19;4.53;;;3.38;;
55037;SDS011;40937;53.594;10.034;2023-11-18T10:58:52;4.05;;;2.60;;
55037;SDS011;40937;53.594;10.034;2023-11-18T11:01:29;3.42;;;3.13;;
55037;SDS011;40937;53.594;10.034;2023-11-18T11:03:57;3.58;;;3.30;;
55037;SDS011;40937;53.594;10.034;2023-11-18T11:06:26;5.07;;;4.68;;
55037;SDS011;40937;53.594;10.034;2023-11-18T11:08:56;4.22;;;3.80;;
55037;SDS011;40937;53.594;10.034;2023-11-18T11:11:24;3.13;;;2.92;;
55037;SDS011;40937;53.594;10.034;2023-11-18T11:13:57;2.70;;;2.50;;
55037;SDS011;40937;53.594;10.034;2023-11-18T11:16:28;3.05;;;2.85;;
55037;SDS011;40937;53.594;10.034;2023-11-18T11:19:01;2.95;;;2.75;;
55037;SDS011;40937;53.594;10.034;2023-11-18T11:21:37;6.20;;;2.90;;
55037;SDS011;40937;53.594;10.034;2023-11-18T11:24:16;3.08;;;2.88;;
55037;SDS011;40937;53.594;10.034;2023-11-18T11:27:01;2.78;;;2.60;;
55037;SDS011;40937;53.594;10.034;2023-11-18T11:29:42;3.63;;;2.60;;
55037;SDS011;40937;53.594;10.034;2023-11-18T11:32:16;2.78;;;2.58;;
55037;SDS011;40937;53.594;10.034;2023-11-18T11:34:54;2.75;;;2.60;;
55037;SDS011;40937;53.594;10.034;2023-11-18T11:37:25;3.75;;;2.95;;
55037;SDS011;40937;53.594;10.034;2023-11-18T11:39:53;3.38;;;2.85;;
55037;SDS011;40937;53.594;10.034;2023-11-18T11:42:23;3.53;;;3.22;;
55037;SDS011;40937;53.594;10.034;2023-11-18T11:44:52;3.63;;;3.35;;
55037;SDS011;40937;53.594;10.034;2023-11-18T11:47:21;3.63;;;3.40;;
55037;SDS011;40937;53.594;10.034;2023-11-18T11:49:50;4.28;;;3.85;;
55037;SDS011;40937;53.594;10.034;2023-11-18T11:52:23;4.28;;;3.88;;
55037;SDS011;40937;53.594;10.034;2023-11-18T11:55:00;4.22;;;3.92;;
55037;SDS011;40937;53.594;10.034;2023-11-18T11:57:32;3.92;;;3.67;;
55037;SDS011;40937;53.594;10.034;2023-11-18T12:00:02;3.97;;;3.67;;
55037;SDS011;40937;53.594;10.034;2023-11-18T12:02:47;4.55;;;4.05;;
55037;SDS011;40937;53.594;10.034;2023-11-18T12:05:15;6.32;;;4.35;;
55037;SDS011;40937;53.594;10.034;2023-11-18T12:07:46;5.53;;;4.25;;
55037;SDS011;40937;53.594;10.034;2023-11-18T12:10:14;4.68;;;4.30;;
55037;SDS011;40937;53.594;10.034;2023-11-18T12:12:46;5.28;;;4.82;;
55037;SDS011;40937;53.594;10.034;2023-11-18T12:15:14;4.95;;;4.55;;
55037;SDS011;40937;53.594;10.034;2023-11-18T12:20:40;6.63;;;5.18;;
55037;SDS011;40937;53.594;10.034;2023-11-18T12:23:14;5.00;;;4.70;;
55037;SDS011;40937;53.594;10.034;2023-11-18T12:25:41;9.38;;;5.03;;
55037;SDS011;40937;53.594;10.034;2023-11-18T12:28:11;5.00;;;4.68;;
55037;SDS011;40937;53.594;10.034;2023-11-18T12:30:42;4.55;;;4.25;;
55037;SDS011;40937;53.594;10.034;2023-11-18T12:33:18;4.20;;;3.90;;
55037;SDS011;40937;53.594;10.034;2023-11-18T12:35:57;5.30;;;4.07;;
55037;SDS011;40937;53.594;10.034;2023-11-18T12:38:56;6.85;;;4.07;;
55037;SDS011;40937;53.594;10.034;2023-11-18T12:41:39;3.75;;;3.47;;
55037;SDS011;40937;53.594;10.034;2023-11-18T12:44:28;4.85;;;3.70;;
55037;SDS011;40937;53.594;10.034;2023-11-18T12:46:59;3.53;;;3.33;;
55037;SDS011;40937;53.594;10.034;2023-11-18T12:49:37;3.47;;;3.28;;
55037;SDS011;40937;53.594;10.034;2023-11-18T12:52:07;3.55;;;3.35;;
55037;SDS011;40937;53.594;10.034;2023-11-18T12:54:36;6.78;;;3.45;;
55037;SDS011;40937;53.594;10.034;2023-11-18T12:57:07;3.30;;;3.10;;
55037;SDS011;40937;53.594;10.034;2023-11-18T12:59:34;3.72;;;3.42;;
55037;SDS011;40937;53.594;10.034;2023-11-18T13:02:06;5.55;;;3.13;;
55037;SDS011;40937;53.594;10.034;2023-11-18T13:04:39;3.38;;;3.17;;
55037;SDS011;40937;53.594;10.034;2023-11-18T13:07:06;3.67;;;3.47;;
55037;SDS011;40937;53.594;10.034;2023-11-18T13:09:38;3.60;;;3.40;;
55037;SDS011;40937;53.594;10.034;2023-11-18T13:12:06;4.22;;;3.88;;
55037;SDS011;40937;53.594;10.034;2023-11-18T13:14:35;4.22;;;3.92;;
55037;SDS011;40937;53.594;10.034;2023-11-18T13:17:03;7.88;;;4.28;;
55037;SDS011;40937;53.594;10.034;2023-11-18T13:19:31;4.07;;;3.67;;
55037;SDS011;40937;53.594;10.034;2023-11-18T13:22:00;4.82;;;4.43;;
55037;SDS011;40937;53.594;10.034;2023-11-18T13:24:29;4.20;;;3.90;;
55037;SDS011;40937;53.594;10.034;2023-11-18T13:26:58;4.05;;;3.75;;
55037;SDS011;40937;53.594;10.034;2023-11-18T13:29:29;4.60;;;4.25;;
55037;SDS011;40937;53.594;10.034;2023-11-18T13:31:56;6.88;;;4.15;;
55037;SDS011;40937;53.594;10.034;2023-11-18T13:34:26;4.55;;;4.25;;
55037;SDS011;40937;53.594;10.034;2023-11-18T13:36:56;4.90;;;4.50;;
55037;SDS011;40937;53.594;10.034;2023-11-18T13:39:23;5.07;;;4.68;;
55037;SDS011;40937;53.594;10.034;2023-11-18T13:41:53;9.68;;;6.30;;
55037;SDS011;40937;53.594;10.034;2023-11-18T13:44:34;5.93;;;5.43;;
55037;SDS011;40937;53.594;10.034;2023-11-18T13:47:04;8.23;;;5.28;;
55037;SDS011;40937;53.594;10.034;2023-11-18T13:49:32;5.93;;;5.43;;
55037;SDS011;40937;53.594;10.034;2023-11-18T13:52:00;5.50;;;4.95;;
55037;SDS011;40937;53.594;10.034;2023-11-18T13:54:28;4.80;;;4.40;;
55037;SDS011;40937;53.594;10.034;2023-11-18T13:56:55;6.63;;;4.75;;
55037;SDS011;40937;53.594;10.034;2023-11-18T13:59:24;4.68;;;4.28;;
55037;SDS011;40937;53.594;10.034;2023-11-18T14:01:54;5.32;;;4.95;;
55037;SDS011;40937;53.594;10.034;2023-11-18T14:04:24;6.15;;;5.60;;
55037;SDS011;40937;53.594;10.034;2023-11-18T14:06:51;4.95;;;4.53;;
55037;SDS011;40937;53.594;10.034;2023-11-18T14:09:19;4.93;;;4.55;;
55037;SDS011;40937;53.594;10.034;2023-11-18T14:11:50;5.82;;;5.28;;
55037;SDS011;40937;53.594;10.034;2023-11-18T14:14:17;8.27;;;5.35;;
55037;SDS011;40937;53.594;10.034;2023-11-18T14:16:45;6.57;;;6.07;;
55037;SDS011;40937;53.594;10.034;2023-11-18T14:19:13;5.15;;;4.65;;
55037;SDS011;40937;53.594;10.034;2023-11-18T14:21:40;5.80;;;5.25;;
55037;SDS011;40937;53.594;10.034;2023-11-18T14:24:10;4.40;;;4.10;;
55037;SDS011;40937;53.594;10.034;2023-11-18T14:26:38;6.22;;;5.63;;
55037;SDS011;40937;53.594;10.034;2023-11-18T14:29:07;5.93;;;5.35;;
55037;SDS011;40937;53.594;10.034;2023-11-18T14:31:34;6.88;;;5.60;;
55037;SDS011;40937;53.594;10.034;2023-11-18T14:34:01;5.25;;;4.72;;
55037;SDS011;40937;53.594;10.034;2023-11-18T14:36:30;5.68;;;5.15;;
55037;SDS011;40937;53.594;10.034;2023-11-18T14:38:58;7.40;;;5.65;;
55037;SDS011;40937;53.594;10.034;2023-11-18T14:41:25;7.65;;;4.68;;
55037;SDS011;40937;53.594;10.034;2023-11-18T14:43:52;5.20;;;4.70;;
55037;SDS011;40937;53.594;10.034;2023-11-18T14:46:20;5.35;;;4.63;;
55037;SDS011;40937;53.594;10.034;2023-11-18T14:48:47;11.07;;;8.90;;
55037;SDS011;40937;53.594;10.034;2023-11-18T14:51:14;4.85;;;4.50;;